createdAt,value
2023-02-15T00:07:45.316Z,0.02
2023-02-15T00:19:45.788Z,0.00
2023-02-15T00:31:46.328Z,0.24
2023-02-15T00:43:46.660Z,0.02
2023-02-15T00:55:47.138Z,0.08
2023-02-15T01:07:47.596Z,0.00
2023-02-15T01:19:48.050Z,0.00
2023-02-15T01:31:48.561Z,0.32
2023-02-15T01:43:48.941Z,0.15
2023-02-15T01:55:49.366Z,0.10
2023-02-15T02:07:49.847Z,0.07
2023-02-15T02:19:50.300Z,0.00
2023-02-15T02:31:50.769Z,0.00
2023-02-15T02:43:51.216Z,0.17
2023-02-15T02:55:51.677Z,0.22
2023-02-15T03:07:52.106Z,1.38
2023-02-15T03:19:52.549Z,2.81
2023-02-15T03:31:53.072Z,2.77
2023-02-15T03:43:53.478Z,2.07
2023-02-15T03:55:53.889Z,1.05
2023-02-15T04:07:54.389Z,0.66
2023-02-15T04:19:54.832Z,1.06
2023-02-15T04:31:55.350Z,0.28
2023-02-15T04:43:55.720Z,0.39
2023-02-15T04:55:56.164Z,0.37
2023-02-15T05:07:56.602Z,0.38
2023-02-15T05:19:57.069Z,0.41
2023-02-15T05:31:57.677Z,0.34
2023-02-15T05:43:57.988Z,0.08
2023-02-15T05:55:58.490Z,0.23
2023-02-15T06:07:58.863Z,0.16
2023-02-15T06:19:59.315Z,0.34
2023-02-15T06:31:59.935Z,0.17
2023-02-15T06:44:00.219Z,0.03
2023-02-15T06:56:01.037Z,0.59
2023-02-15T07:08:01.118Z,0.49
2023-02-15T07:20:01.603Z,0.31
2023-02-15T07:32:02.118Z,0.28
2023-02-15T07:44:02.542Z,1.79
2023-02-15T07:56:03.198Z,1.43
2023-02-15T08:08:03.364Z,2.11
2023-02-15T08:20:03.876Z,2.56
2023-02-15T08:32:04.380Z,0.60
2023-02-15T08:44:04.786Z,0.80
2023-02-15T08:56:05.226Z,3.41
2023-02-15T09:08:05.695Z,3.45
2023-02-15T09:20:06.134Z,3.03
2023-02-15T09:32:06.635Z,3.75
2023-02-15T09:44:07.026Z,3.25
2023-02-15T09:56:07.457Z,3.42
2023-02-15T10:08:07.963Z,2.87
2023-02-15T10:20:08.404Z,4.51
2023-02-15T10:32:08.994Z,3.80
2023-02-15T10:44:09.259Z,3.52
2023-02-15T10:56:09.759Z,3.83
2023-02-15T11:08:10.159Z,2.96
2023-02-15T11:20:10.654Z,3.75
2023-02-15T11:32:11.284Z,4.16
2023-02-15T11:44:11.564Z,3.68
2023-02-15T11:56:11.992Z,4.43
2023-02-15T12:08:12.455Z,3.48
2023-02-15T12:20:12.874Z,3.71
2023-02-15T12:32:13.465Z,3.16
2023-02-15T12:44:14.617Z,2.98
2023-02-15T12:56:14.298Z,3.22
2023-02-15T13:08:14.742Z,2.74
2023-02-15T13:20:15.195Z,2.09
2023-02-15T13:32:15.670Z,2.60
2023-02-15T13:44:16.116Z,2.58
2023-02-15T13:56:16.533Z,1.93
2023-02-15T14:08:17.035Z,2.43
2023-02-15T14:20:17.489Z,1.72
2023-02-15T14:32:17.992Z,3.04
2023-02-15T14:44:18.320Z,1.68
2023-02-15T14:56:18.861Z,1.95
2023-02-15T15:08:19.247Z,0.54
2023-02-15T15:20:19.707Z,0.86
2023-02-15T15:32:20.231Z,0.62
2023-02-15T15:44:20.622Z,0.54
2023-02-15T15:56:21.058Z,0.60
2023-02-15T16:08:21.543Z,0.34
2023-02-15T16:20:22.027Z,0.10
2023-02-15T16:32:22.427Z,0.00
2023-02-15T16:44:22.889Z,0.00
2023-02-15T16:56:23.325Z,0.00
2023-02-15T17:08:23.833Z,0.00
2023-02-15T17:20:24.303Z,0.00
2023-02-15T17:32:24.831Z,0.19
2023-02-15T17:44:25.165Z,0.00
2023-02-15T17:56:25.797Z,0.00
2023-02-15T18:08:26.092Z,0.00
2023-02-15T18:20:26.712Z,0.00
2023-02-15T18:32:27.022Z,0.00
2023-02-15T18:44:27.486Z,0.00
2023-02-15T18:56:27.883Z,0.00
2023-02-15T19:08:28.355Z,0.00
2023-02-15T19:20:28.762Z,0.00
2023-02-15T19:32:29.188Z,0.16
2023-02-15T19:44:29.742Z,0.00
2023-02-15T19:56:30.156Z,0.00
2023-02-15T20:08:30.645Z,0.00
2023-02-15T20:20:31.098Z,0.00
2023-02-15T20:32:31.672Z,0.05
2023-02-15T20:44:31.954Z,0.00
2023-02-15T20:56:33.768Z,0.00
2023-02-15T21:08:32.836Z,0.00
2023-02-15T21:20:33.338Z,0.00
2023-02-15T21:32:33.845Z,0.00
2023-02-15T21:44:34.205Z,0.00
2023-02-15T21:56:34.677Z,0.00
2023-02-15T22:08:35.109Z,0.34
2023-02-15T22:20:35.558Z,0.30
2023-02-15T22:32:36.021Z,0.19
2023-02-15T22:44:36.475Z,0.00
2023-02-15T22:56:36.917Z,0.00
2023-02-15T23:08:37.321Z,0.00
2023-02-15T23:20:37.793Z,0.20
2023-02-15T23:32:38.387Z,0.05
2023-02-15T23:44:38.705Z,0.00
2023-02-15T23:56:39.167Z,0.00
